createdAt,value
2022-08-26T00:02:02.420Z,17.77
2022-08-26T00:04:50.355Z,17.75
2022-08-26T00:07:38.098Z,17.72
2022-08-26T00:10:25.968Z,17.68
2022-08-26T00:13:14.817Z,17.64
2022-08-26T00:16:03.206Z,17.65
2022-08-26T00:18:53.141Z,17.69
2022-08-26T00:21:40.792Z,17.64
2022-08-26T00:24:28.445Z,17.52
2022-08-26T00:27:15.905Z,17.37
2022-08-26T00:30:05.392Z,17.24
2022-08-26T00:32:53.008Z,17.13
2022-08-26T00:35:41.200Z,17.12
2022-08-26T00:38:30.344Z,17.08
2022-08-26T00:41:19.423Z,16.99
2022-08-26T00:44:06.968Z,16.92
2022-08-26T00:46:58.975Z,16.86
2022-08-26T00:49:48.071Z,16.81
2022-08-26T00:52:36.248Z,16.73
2022-08-26T00:55:38.028Z,16.69
2022-08-26T00:58:26.392Z,16.68
2022-08-26T01:01:14.043Z,16.67
2022-08-26T01:04:02.048Z,16.65
2022-08-26T01:06:52.440Z,16.60
2022-08-26T01:09:39.999Z,16.55
2022-08-26T01:12:29.553Z,16.53
2022-08-26T01:15:21.944Z,16.57
2022-08-26T01:18:09.304Z,16.61
2022-08-26T01:21:19.255Z,16.62
2022-08-26T01:24:07.672Z,16.61
2022-08-26T01:27:03.505Z,16.63
2022-08-26T01:29:51.936Z,16.59
2022-08-26T01:32:42.012Z,16.53
2022-08-26T01:35:30.399Z,16.45
2022-08-26T01:38:18.559Z,16.39
2022-08-26T01:41:16.354Z,16.37
2022-08-26T01:43:57.890Z,16.29
2022-08-26T01:46:47.072Z,16.22
2022-08-26T01:49:36.768Z,16.08
2022-08-26T01:52:28.272Z,15.93
2022-08-26T01:55:27.660Z,15.94
2022-08-26T01:58:06.544Z,15.97
2022-08-26T02:00:54.106Z,16.00
2022-08-26T02:03:45.062Z,16.02
2022-08-26T02:06:34.312Z,16.07
2022-08-26T02:09:22.114Z,16.08
2022-08-26T02:12:11.448Z,16.11
2022-08-26T02:15:00.839Z,16.09
2022-08-26T02:17:48.880Z,16.02
2022-08-26T02:20:38.000Z,15.93
2022-08-26T02:23:25.188Z,15.89
2022-08-26T02:26:18.022Z,15.85
2022-08-26T02:29:12.887Z,15.83
2022-08-26T02:32:01.967Z,15.83
2022-08-26T02:34:49.520Z,15.87
2022-08-26T02:37:37.001Z,15.94
2022-08-26T02:40:28.993Z,16.02
2022-08-26T02:43:17.165Z,16.04
2022-08-26T02:46:06.008Z,16.07
2022-08-26T02:48:53.836Z,16.07
2022-08-26T02:51:41.347Z,15.98
2022-08-26T02:54:30.495Z,15.89
2022-08-26T02:57:19.687Z,15.83
2022-08-26T03:00:11.049Z,15.79
2022-08-26T03:02:59.226Z,15.79
2022-08-26T03:05:47.416Z,15.73
2022-08-26T03:08:34.575Z,15.67
2022-08-26T03:11:21.855Z,15.63
2022-08-26T03:14:09.217Z,15.58
2022-08-26T03:16:56.639Z,15.54
2022-08-26T03:19:44.243Z,15.53
2022-08-26T03:22:31.463Z,15.56
2022-08-26T03:25:19.233Z,15.60
2022-08-26T03:28:06.559Z,15.62
2022-08-26T03:30:57.172Z,15.63
2022-08-26T03:33:44.424Z,15.64
2022-08-26T03:36:33.647Z,15.64
2022-08-26T03:39:22.607Z,15.62
2022-08-26T03:42:10.708Z,15.58
2022-08-26T03:44:58.521Z,15.54
2022-08-26T03:47:45.655Z,15.54
2022-08-26T03:50:34.399Z,15.55
2022-08-26T03:53:23.912Z,15.57
2022-08-26T03:56:11.960Z,15.56
2022-08-26T03:59:00.087Z,15.54
2022-08-26T04:01:47.425Z,15.56
2022-08-26T04:04:37.520Z,15.59
2022-08-26T04:07:26.080Z,15.68
2022-08-26T04:10:15.426Z,15.80
2022-08-26T04:13:04.876Z,15.90
2022-08-26T04:15:52.324Z,16.01
2022-08-26T04:18:40.613Z,16.11
2022-08-26T04:21:30.098Z,16.27
2022-08-26T04:24:18.304Z,16.27
2022-08-26T04:27:06.761Z,16.44
2022-08-26T04:29:55.711Z,16.57
2022-08-26T04:32:43.207Z,16.71
2022-08-26T04:35:31.311Z,16.81
2022-08-26T04:38:20.071Z,16.83
2022-08-26T04:41:15.708Z,16.90
2022-08-26T04:43:59.015Z,16.96
2022-08-26T04:46:46.617Z,17.03
2022-08-26T04:49:35.248Z,17.12
2022-08-26T04:52:22.848Z,17.21
2022-08-26T04:55:10.976Z,17.37
2022-08-26T04:57:58.449Z,17.53
2022-08-26T05:00:47.671Z,17.74
2022-08-26T05:03:34.884Z,17.90
2022-08-26T05:06:22.248Z,18.05
2022-08-26T05:09:09.495Z,18.18
2022-08-26T05:11:56.904Z,18.35
2022-08-26T05:14:43.928Z,18.53
2022-08-26T05:17:31.553Z,18.76
2022-08-26T05:20:22.638Z,18.98
2022-08-26T05:23:08.370Z,19.20
2022-08-26T05:25:59.261Z,19.42
2022-08-26T05:28:46.667Z,19.62
2022-08-26T05:31:36.348Z,19.81
2022-08-26T05:34:23.855Z,19.97
2022-08-26T05:37:13.657Z,20.14
2022-08-26T05:40:02.913Z,20.29
2022-08-26T05:42:53.143Z,20.45
2022-08-26T05:45:46.084Z,20.58
2022-08-26T05:48:32.632Z,20.75
2022-08-26T05:51:25.887Z,20.92
2022-08-26T05:54:11.167Z,21.10
2022-08-26T05:56:58.961Z,21.32
2022-08-26T05:59:46.208Z,21.46
2022-08-26T06:02:33.309Z,21.61
2022-08-26T06:05:21.256Z,21.77
2022-08-26T06:08:13.671Z,21.91
2022-08-26T06:11:02.815Z,22.08
2022-08-26T06:13:50.087Z,22.23
2022-08-26T06:16:40.739Z,22.40
2022-08-26T06:19:32.736Z,22.58
2022-08-26T06:22:36.152Z,22.77
2022-08-26T06:25:39.186Z,22.94
2022-08-26T06:28:27.505Z,23.09
2022-08-26T06:31:15.960Z,23.25
2022-08-26T06:34:10.341Z,23.39
2022-08-26T06:36:54.080Z,23.52
2022-08-26T06:39:41.991Z,23.70
2022-08-26T06:42:29.842Z,23.84
2022-08-26T06:45:17.588Z,23.99
2022-08-26T06:48:05.783Z,24.15
2022-08-26T06:51:06.656Z,24.31
2022-08-26T06:53:55.961Z,24.48
2022-08-26T06:56:45.455Z,24.64
2022-08-26T06:59:34.505Z,24.82
2022-08-26T07:02:22.735Z,24.99
2022-08-26T07:05:10.713Z,25.10
2022-08-26T07:07:58.967Z,25.25
2022-08-26T07:10:46.170Z,25.40
2022-08-26T07:13:35.624Z,25.55
2022-08-26T07:16:23.391Z,25.68
2022-08-26T07:19:11.616Z,25.84
2022-08-26T07:22:03.648Z,25.93
2022-08-26T07:24:51.867Z,26.09
2022-08-26T07:27:39.856Z,26.23
2022-08-26T07:30:27.776Z,26.33
2022-08-26T07:33:14.873Z,26.45
2022-08-26T07:36:02.657Z,26.52
2022-08-26T07:38:53.048Z,26.58
2022-08-26T07:41:40.823Z,26.65
2022-08-26T07:44:27.945Z,26.71
2022-08-26T07:47:24.694Z,26.74
2022-08-26T07:50:05.792Z,26.85
2022-08-26T07:52:53.649Z,26.96
2022-08-26T07:55:41.015Z,27.06
2022-08-26T07:58:30.297Z,27.16
2022-08-26T08:01:17.641Z,27.27
2022-08-26T08:04:06.278Z,27.39
2022-08-26T08:06:55.295Z,27.53
2022-08-26T08:09:42.840Z,27.61
2022-08-26T08:12:30.216Z,27.69
2022-08-26T08:15:20.327Z,27.76
2022-08-26T08:18:07.227Z,27.83
2022-08-26T08:21:10.873Z,27.90
2022-08-26T08:23:45.575Z,27.99
2022-08-26T08:26:34.913Z,28.12
2022-08-26T08:29:22.807Z,28.21
2022-08-26T08:32:11.629Z,28.35
2022-08-26T08:35:00.196Z,28.42
2022-08-26T08:37:48.231Z,28.51
2022-08-26T08:40:36.483Z,28.60
2022-08-26T08:43:41.359Z,28.71
2022-08-26T08:46:30.381Z,28.80
2022-08-26T08:49:18.560Z,28.89
2022-08-26T08:52:23.808Z,29.06
2022-08-26T08:55:17.754Z,29.23
2022-08-26T08:58:12.263Z,29.33
2022-08-26T09:01:04.811Z,29.33
2022-08-26T09:04:07.919Z,29.43
2022-08-26T09:09:48.856Z,29.66
2022-08-26T09:12:36.751Z,29.78
2022-08-26T09:18:31.440Z,29.94
2022-08-26T09:21:22.551Z,29.94
2022-08-26T09:24:11.314Z,29.86
2022-08-26T09:27:00.200Z,29.84
2022-08-26T09:29:50.387Z,29.76
2022-08-26T09:32:36.603Z,29.84
2022-08-26T09:35:31.178Z,29.97
2022-08-26T09:38:26.890Z,30.12
2022-08-26T09:41:26.882Z,30.22
2022-08-26T09:44:19.207Z,30.32
2022-08-26T09:47:08.975Z,30.30
2022-08-26T09:50:13.504Z,30.44
2022-08-26T09:53:28.782Z,30.51
2022-08-26T09:56:15.335Z,30.56
2022-08-26T09:59:04.016Z,30.59
2022-08-26T10:01:53.236Z,30.66
2022-08-26T10:04:40.737Z,30.74
2022-08-26T10:07:39.000Z,30.86
2022-08-26T10:10:38.205Z,30.94
2022-08-26T10:13:35.770Z,31.11
2022-08-26T10:16:25.587Z,31.28
2022-08-26T10:19:25.639Z,31.36
2022-08-26T10:22:32.039Z,31.39
2022-08-26T10:25:31.736Z,31.35
2022-08-26T10:28:22.448Z,31.33
2022-08-26T10:31:42.092Z,31.46
2022-08-26T10:34:29.527Z,31.50
2022-08-26T10:37:24.703Z,31.49
2022-08-26T10:43:21.119Z,31.49
2022-08-26T10:46:16.100Z,31.48
2022-08-26T10:49:13.991Z,31.44
2022-08-26T10:52:12.384Z,31.40
2022-08-26T10:55:22.265Z,31.40
2022-08-26T10:58:26.714Z,31.43
2022-08-26T11:01:41.598Z,31.55
2022-08-26T11:04:51.690Z,31.71
2022-08-26T11:07:48.648Z,31.85
2022-08-26T11:10:48.530Z,31.85
2022-08-26T11:13:59.455Z,31.88
2022-08-26T11:20:00.332Z,32.03
2022-08-26T11:22:39.754Z,32.01
2022-08-26T11:25:30.906Z,31.99
2022-08-26T11:28:20.258Z,31.79
2022-08-26T11:31:27.291Z,31.80
2022-08-26T11:34:15.879Z,31.96
2022-08-26T11:37:05.144Z,32.16
2022-08-26T11:39:57.097Z,32.27
2022-08-26T11:42:59.667Z,32.35
2022-08-26T11:45:49.555Z,32.47
2022-08-26T11:48:43.355Z,32.49
2022-08-26T11:51:31.958Z,32.31
2022-08-26T11:54:26.919Z,32.30
2022-08-26T11:57:13.634Z,32.41
2022-08-26T12:00:01.605Z,32.50
2022-08-26T12:02:49.864Z,32.50
2022-08-26T12:05:39.759Z,32.51
2022-08-26T12:08:29.099Z,32.38
2022-08-26T12:11:21.891Z,32.54
2022-08-26T12:14:18.745Z,32.69
2022-08-26T12:17:17.575Z,32.74
2022-08-26T12:20:07.783Z,32.84
2022-08-26T12:22:55.682Z,33.03
2022-08-26T12:25:44.216Z,33.09
2022-08-26T12:28:33.703Z,33.11
2022-08-26T12:31:29.724Z,32.94
2022-08-26T12:34:18.624Z,32.87
2022-08-26T12:37:06.239Z,32.64
2022-08-26T12:39:54.987Z,32.51
2022-08-26T12:42:43.511Z,32.71
2022-08-26T12:45:45.091Z,32.99
2022-08-26T12:48:36.172Z,33.30
2022-08-26T12:51:26.232Z,33.37
2022-08-26T12:54:17.823Z,33.29
2022-08-26T12:57:12.775Z,33.60
2022-08-26T13:00:19.592Z,33.74
2022-08-26T13:03:46.803Z,33.69
2022-08-26T13:06:35.089Z,33.97
2022-08-26T13:09:25.646Z,34.87
2022-08-26T13:12:13.400Z,35.69
2022-08-26T13:15:02.241Z,36.47
2022-08-26T13:17:50.135Z,36.83
2022-08-26T13:20:40.860Z,36.97
2022-08-26T13:23:28.335Z,36.47
2022-08-26T13:26:15.718Z,35.38
2022-08-26T13:29:06.253Z,35.29
2022-08-26T13:31:53.017Z,35.45
2022-08-26T13:34:40.734Z,36.49
2022-08-26T13:37:34.384Z,37.86
2022-08-26T13:40:17.513Z,39.02
2022-08-26T13:43:04.937Z,39.78
2022-08-26T13:45:52.470Z,40.14
2022-08-26T13:48:41.100Z,40.44
2022-08-26T13:51:30.584Z,40.74
2022-08-26T13:54:18.224Z,40.97
2022-08-26T13:57:06.303Z,41.37
2022-08-26T13:59:54.159Z,41.16
2022-08-26T14:02:41.855Z,41.25
2022-08-26T14:05:30.248Z,41.58
2022-08-26T14:08:18.096Z,41.55
2022-08-26T14:11:05.593Z,41.46
2022-08-26T14:13:53.047Z,41.39
2022-08-26T14:16:59.718Z,41.40
2022-08-26T14:19:31.371Z,41.50
2022-08-26T14:22:21.082Z,41.66
2022-08-26T14:25:08.992Z,41.71
2022-08-26T14:27:58.271Z,41.67
2022-08-26T14:30:49.273Z,41.77
2022-08-26T14:33:38.434Z,41.81
2022-08-26T14:36:28.682Z,41.90
2022-08-26T14:39:15.895Z,41.89
2022-08-26T14:42:03.431Z,42.01
2022-08-26T14:44:56.400Z,42.16
2022-08-26T14:47:43.816Z,42.37
2022-08-26T14:50:31.248Z,42.28
2022-08-26T14:53:36.559Z,42.14
2022-08-26T14:56:24.351Z,42.21
2022-08-26T14:59:14.391Z,42.09
2022-08-26T15:02:02.284Z,41.93
2022-08-26T15:04:50.727Z,41.94
2022-08-26T15:07:39.111Z,41.96
2022-08-26T15:10:26.891Z,41.90
2022-08-26T15:13:14.566Z,41.85
2022-08-26T15:16:02.279Z,41.83
2022-08-26T15:18:51.359Z,41.61
2022-08-26T15:21:38.842Z,41.26
2022-08-26T15:24:29.063Z,41.04
2022-08-26T15:27:16.983Z,41.00
2022-08-26T15:30:07.648Z,41.03
2022-08-26T15:32:55.400Z,40.97
2022-08-26T15:35:42.946Z,40.91
2022-08-26T15:38:32.808Z,40.64
2022-08-26T15:41:20.447Z,40.44
2022-08-26T15:44:08.662Z,40.19
2022-08-26T15:46:58.622Z,39.83
2022-08-26T15:49:45.683Z,39.54
2022-08-26T15:52:33.095Z,39.42
2022-08-26T15:55:20.933Z,39.38
2022-08-26T15:58:10.687Z,39.32
2022-08-26T16:00:58.240Z,39.20
2022-08-26T16:03:46.463Z,39.09
2022-08-26T16:06:36.754Z,38.95
2022-08-26T16:09:26.668Z,38.46
2022-08-26T16:15:01.655Z,37.31
2022-08-26T16:17:49.256Z,37.08
2022-08-26T16:20:39.231Z,36.72
2022-08-26T16:23:27.159Z,36.62
2022-08-26T16:26:17.920Z,36.35
2022-08-26T16:29:08.720Z,35.52
2022-08-26T16:31:56.223Z,34.58
2022-08-26T16:34:56.793Z,34.20
2022-08-26T16:37:37.674Z,33.57
2022-08-26T16:40:25.150Z,32.44
2022-08-26T16:43:15.271Z,31.52
2022-08-26T16:46:02.257Z,30.92
2022-08-26T16:48:49.855Z,30.37
2022-08-26T16:51:38.002Z,29.92
2022-08-26T16:54:26.479Z,29.45
2022-08-26T16:57:14.529Z,29.03
2022-08-26T17:00:05.183Z,28.63
2022-08-26T17:02:54.108Z,28.29
2022-08-26T17:05:41.882Z,27.92
2022-08-26T17:08:29.098Z,27.58
2022-08-26T17:11:16.839Z,27.00
2022-08-26T17:14:04.406Z,27.00
2022-08-26T17:16:53.719Z,26.71
2022-08-26T17:19:47.092Z,26.45
2022-08-26T17:22:34.509Z,26.18
2022-08-26T17:25:29.816Z,26.01
2022-08-26T17:28:17.440Z,25.88
2022-08-26T17:31:05.307Z,25.69
2022-08-26T17:33:54.258Z,25.44
2022-08-26T17:36:42.033Z,25.21
2022-08-26T17:39:29.248Z,24.93
2022-08-26T17:42:16.337Z,24.66
2022-08-26T17:45:04.105Z,24.43
2022-08-26T17:47:52.454Z,24.24
2022-08-26T17:50:41.443Z,24.04
2022-08-26T17:53:29.625Z,23.83
2022-08-26T17:56:19.047Z,23.67
2022-08-26T17:59:06.233Z,23.52
2022-08-26T18:01:55.677Z,23.38
2022-08-26T18:04:43.265Z,23.23
2022-08-26T18:07:33.793Z,23.08
2022-08-26T18:10:24.824Z,22.94
2022-08-26T18:13:14.266Z,22.81
2022-08-26T18:16:03.463Z,22.70
2022-08-26T18:18:52.888Z,22.65
2022-08-26T18:21:40.400Z,22.63
2022-08-26T18:24:29.465Z,22.57
2022-08-26T18:27:17.089Z,22.51
2022-08-26T18:30:07.249Z,22.47
2022-08-26T18:32:54.706Z,22.43
2022-08-26T18:35:44.184Z,22.42
2022-08-26T18:38:31.539Z,22.41
2022-08-26T18:41:22.000Z,22.35
2022-08-26T18:44:13.414Z,22.31
2022-08-26T18:46:58.881Z,22.22
2022-08-26T18:49:47.402Z,22.11
2022-08-26T18:52:34.912Z,22.03
2022-08-26T18:55:22.240Z,21.97
2022-08-26T18:58:09.884Z,21.90
2022-08-26T19:00:58.943Z,21.82
2022-08-26T19:03:50.107Z,21.72
2022-08-26T19:06:39.609Z,21.60
2022-08-26T19:09:27.450Z,21.50
2022-08-26T19:12:15.225Z,21.41
2022-08-26T19:15:03.360Z,21.34
2022-08-26T19:17:50.912Z,21.31
2022-08-26T19:20:46.671Z,21.31
2022-08-26T19:23:32.838Z,21.32
2022-08-26T19:26:20.671Z,21.25
2022-08-26T19:29:08.296Z,21.12
2022-08-26T19:31:55.832Z,21.07
2022-08-26T19:34:43.629Z,21.05
2022-08-26T19:37:31.537Z,21.03
2022-08-26T19:40:19.305Z,21.00
2022-08-26T19:43:07.000Z,20.94
2022-08-26T19:45:54.478Z,20.87
2022-08-26T19:48:45.369Z,20.80
2022-08-26T19:51:35.586Z,20.76
2022-08-26T19:54:23.361Z,20.72
2022-08-26T19:57:11.129Z,20.70
2022-08-26T20:00:00.785Z,20.68
2022-08-26T20:02:49.033Z,20.65
2022-08-26T20:05:36.796Z,20.64
2022-08-26T20:08:24.825Z,20.68
2022-08-26T20:11:14.586Z,20.69
2022-08-26T20:14:02.016Z,20.60
2022-08-26T20:16:49.655Z,20.60
2022-08-26T20:19:54.897Z,20.47
2022-08-26T20:22:42.440Z,20.36
2022-08-26T20:25:30.778Z,20.29
2022-08-26T20:28:18.882Z,20.22
2022-08-26T20:31:07.640Z,20.18
2022-08-26T20:33:57.535Z,20.10
2022-08-26T20:36:46.216Z,20.01
2022-08-26T20:39:33.936Z,19.94
2022-08-26T20:42:21.552Z,19.95
2022-08-26T20:45:09.689Z,19.95
2022-08-26T20:47:57.314Z,19.93
2022-08-26T20:50:46.489Z,19.93
2022-08-26T20:53:34.431Z,19.92
2022-08-26T20:56:24.366Z,19.96
2022-08-26T20:59:12.256Z,20.00
2022-08-26T21:02:00.823Z,20.05
2022-08-26T21:04:48.658Z,19.95
2022-08-26T21:07:36.399Z,19.94
2022-08-26T21:10:23.804Z,19.98
2022-08-26T21:13:11.143Z,19.92
2022-08-26T21:15:59.434Z,19.77
2022-08-26T21:18:47.911Z,19.63
2022-08-26T21:21:35.186Z,19.52
2022-08-26T21:24:23.464Z,19.47
2022-08-26T21:27:10.639Z,19.42
2022-08-26T21:29:57.768Z,19.38
2022-08-26T21:32:45.271Z,19.36
2022-08-26T21:35:32.764Z,19.38
2022-08-26T21:38:21.342Z,19.32
2022-08-26T21:41:13.033Z,19.19
2022-08-26T21:44:01.170Z,18.99
2022-08-26T21:46:49.958Z,18.83
2022-08-26T21:49:37.263Z,18.74
2022-08-26T21:52:24.877Z,18.72
2022-08-26T21:55:12.304Z,18.71
2022-08-26T21:57:59.321Z,18.69
2022-08-26T22:00:53.444Z,18.62
2022-08-26T22:03:47.464Z,18.65
2022-08-26T22:06:30.638Z,18.72
2022-08-26T22:09:26.239Z,18.76
2022-08-26T22:12:15.550Z,18.70
2022-08-26T22:15:03.679Z,18.63
2022-08-26T22:17:51.089Z,18.55
2022-08-26T22:20:39.327Z,18.51
2022-08-26T22:23:39.275Z,18.46
2022-08-26T22:26:27.222Z,18.38
2022-08-26T22:29:14.784Z,18.30
2022-08-26T22:32:02.862Z,18.26
2022-08-26T22:34:50.167Z,18.19
2022-08-26T22:37:37.619Z,18.10
2022-08-26T22:40:25.241Z,18.01
2022-08-26T22:43:13.079Z,17.93
2022-08-26T22:46:00.606Z,17.98
2022-08-26T22:48:53.864Z,18.13
2022-08-26T22:51:37.422Z,18.30
2022-08-26T22:54:24.593Z,18.35
2022-08-26T22:57:11.903Z,18.31
2022-08-26T22:59:59.703Z,18.19
2022-08-26T23:02:47.126Z,18.06
2022-08-26T23:05:35.388Z,17.97
2022-08-26T23:08:23.294Z,17.94
2022-08-26T23:11:12.358Z,17.94
2022-08-26T23:14:00.023Z,17.94
2022-08-26T23:16:49.017Z,17.98
2022-08-26T23:19:36.727Z,18.06
2022-08-26T23:22:24.071Z,18.13
2022-08-26T23:25:12.047Z,18.17
2022-08-26T23:28:00.727Z,18.24
2022-08-26T23:30:48.862Z,18.30
2022-08-26T23:33:54.056Z,18.25
2022-08-26T23:36:43.383Z,18.16
2022-08-26T23:39:36.654Z,18.08
2022-08-26T23:42:24.367Z,18.08
2022-08-26T23:45:16.630Z,17.98
2022-08-26T23:48:04.712Z,17.92
2022-08-26T23:51:10.118Z,17.85
2022-08-26T23:53:58.128Z,17.85
2022-08-26T23:56:45.713Z,17.86
2022-08-26T23:59:34.177Z,17.88
